Time;durP1;ratioP1;P1;durP2;ratioP2;P2;SDS_P1;SDS_P2;PMS_P1;PMS_P2;Temp;Humidity;BMP_temperature;BMP_pressure;BME280_temperature;BME280_humidity;BME280_pressure;Samples;Min_cycle;Max_cycle;Signal;HPM_P1;HPM_P2
2022/01/10 00:00:44;;;;;;;;;9.00;5.50;;;;;15.72;49.58;101063.66;5013110;28;8778;-77
2022/01/10 00:05:35;;;;;;;;;6.50;6.00;;;;;15.73;49.62;101068.06;5508039;22;9681;-76
2022/01/10 00:08:02;;;;;;;;;5.75;5.75;;;;;15.76;49.91;101073.34;5012900;28;8786;-76
2022/01/10 00:10:28;;;;;;;;;7.00;7.00;;;;;15.72;49.70;101075.94;5012312;28;8802;-76
2022/01/10 00:12:53;;;;;;;;;5.25;4.75;;;;;15.68;49.76;101082.06;5013134;28;9635;-76
2022/01/10 00:15:18;;;;;;;;;9.00;7.25;;;;;15.71;49.59;101077.69;5012470;28;8903;-76
2022/01/10 00:17:44;;;;;;;;;5.50;4.75;;;;;15.76;49.62;101091.75;5013062;28;8834;-76
2022/01/10 00:20:13;;;;;;;;;6.00;4.00;;;;;15.73;49.62;101093.50;5013417;28;8909;-77
2022/01/10 00:22:40;;;;;;;;;4.25;4.25;;;;;15.70;49.66;101097.00;5013056;28;9526;-77
2022/01/10 00:25:06;;;;;;;;;6.00;6.00;;;;;15.72;49.55;101100.50;5013305;28;10416;-77
2022/01/10 00:27:31;;;;;;;;;4.00;4.00;;;;;15.68;49.80;101111.00;5013019;28;9791;-77
2022/01/10 00:29:57;;;;;;;;;5.00;4.75;;;;;15.71;49.63;101104.00;5012605;28;9635;-77
2022/01/10 00:32:25;;;;;;;;;4.00;4.00;;;;;15.70;49.99;101112.81;5013084;28;8782;-77
2022/01/10 00:34:51;;;;;;;;;4.75;4.75;;;;;15.73;49.72;101114.56;5013002;28;8788;-77
2022/01/10 00:37:17;;;;;;;;;5.25;5.00;;;;;15.73;49.44;101117.19;5012439;28;9567;-77
2022/01/10 00:39:42;;;;;;;;;5.00;5.00;;;;;15.68;49.49;101096.09;5011687;28;9568;-77
2022/01/10 00:42:08;;;;;;;;;5.00;5.00;;;;;15.72;49.40;101107.53;5013021;28;11363;-77
2022/01/10 00:44:38;;;;;;;;;4.00;3.00;;;;;15.70;49.52;101102.28;5012380;28;8833;-77
2022/01/10 00:47:04;;;;;;;;;6.00;6.00;;;;;15.72;49.48;101124.22;5012788;28;8774;-77
2022/01/10 00:49:30;;;;;;;;;6.50;6.50;;;;;15.68;49.79;101132.94;5012959;28;9804;-76
2022/01/10 00:51:55;;;;;;;;;5.25;5.25;;;;;15.64;49.70;101140.81;5012188;28;9879;-76
2022/01/10 00:54:21;;;;;;;;;5.00;5.00;;;;;15.65;49.60;101124.16;5012680;28;8790;-76
2022/01/10 00:56:46;;;;;;;;;5.50;5.50;;;;;15.64;49.57;101136.44;5012206;28;8801;-76
2022/01/10 00:59:11;;;;;;;;;5.00;5.00;;;;;15.72;49.31;101144.38;5012404;28;8806;-76
2022/01/10 01:01:36;;;;;;;;;7.25;6.00;;;;;15.66;49.19;101145.25;5012596;28;9501;-76
2022/01/10 01:04:02;;;;;;;;;4.50;4.50;;;;;15.69;49.29;101154.91;5011780;28;8774;-76
2022/01/10 01:06:28;;;;;;;;;6.50;5.25;;;;;15.67;49.45;101157.50;5012457;28;8810;-77
2022/01/10 01:08:58;;;;;;;;;5.25;4.75;;;;;15.68;49.68;101163.66;5012134;28;9615;-76
2022/01/10 01:14:05;;;;;;;;;6.00;6.00;;;;;15.66;49.54;101163.66;5012126;28;9634;-76
2022/01/10 01:19:11;;;;;;;;;6.25;5.50;;;;;15.64;49.46;101160.13;5011509;28;9752;-76
2022/01/10 01:24:20;;;;;;;;;7.25;5.50;;;;;15.68;49.56;101168.91;5012232;28;10425;-76
2022/01/10 01:26:48;;;;;;;;;5.00;5.00;;;;;15.63;49.50;101174.19;5011176;28;9644;-76
2022/01/10 01:29:20;;;;;;;;;4.00;4.00;;;;;15.69;49.43;101184.72;5012160;28;8838;-76
2022/01/10 01:31:46;;;;;;;;;4.00;4.00;;;;;15.66;49.37;101183.84;5011071;28;9720;-76
2022/01/10 01:34:14;;;;;;;;;4.00;3.00;;;;;15.63;49.48;101189.09;5011894;28;9640;-75
2022/01/10 01:36:39;;;;;;;;;6.50;5.00;;;;;15.62;49.51;101188.22;5011793;28;9527;-75
2022/01/10 01:39:17;;;;;;;;;7.25;5.75;;;;;15.66;49.49;101195.25;5011501;28;9674;-76
2022/01/10 01:41:43;;;;;;;;;4.75;4.75;;;;;15.66;49.43;101194.38;5011345;28;8781;-76
2022/01/10 01:44:09;;;;;;;;;5.75;4.75;;;;;15.69;49.36;101197.00;5011976;28;9780;-76
2022/01/10 01:46:36;;;;;;;;;5.50;4.50;;;;;15.65;49.45;101201.38;5011094;28;9651;-76
2022/01/10 01:49:02;;;;;;;;;4.25;4.00;;;;;15.67;49.31;101212.78;5010222;28;8816;-76
2022/01/10 01:51:28;;;;;;;;;4.00;3.25;;;;;15.67;49.21;101207.50;5010961;28;9564;-76
2022/01/10 01:53:53;;;;;;;;;7.00;5.00;;;;;15.65;49.55;101219.81;5011050;28;9617;-76
2022/01/10 01:56:19;;;;;;;;;6.00;6.00;;;;;15.64;50.11;101220.66;5011557;28;8774;-76
2022/01/10 01:58:45;;;;;;;;;4.25;4.25;;;;;15.67;50.19;101223.31;5011127;28;8963;-76
2022/01/10 02:01:12;;;;;;;;;5.00;5.00;;;;;15.62;49.75;101229.44;5010982;28;9734;-75
2022/01/10 02:03:38;;;;;;;;;5.00;5.00;;;;;15.66;49.70;101240.00;5011292;28;8790;-76
2022/01/10 02:06:07;;;;;;;;;7.75;7.75;;;;;15.64;49.71;101235.56;5011094;28;9481;-76
2022/01/10 02:08:37;;;;;;;;;4.25;4.00;;;;;15.66;49.93;101247.91;5011134;28;10309;-76
2022/01/10 02:11:05;;;;;;;;;4.00;4.00;;;;;15.67;49.54;101254.03;5011040;28;9528;-76
2022/01/10 02:13:31;;;;;;;;;4.00;4.00;;;;;15.64;49.59;101259.25;5011468;28;9455;-76
2022/01/10 02:16:02;;;;;;;;;6.50;6.00;;;;;15.66;49.57;101273.34;5010313;28;9699;-75
2022/01/10 02:18:28;;;;;;;;;6.00;4.00;;;;;15.68;49.72;101272.47;5011304;28;8822;-76
2022/01/10 02:20:54;;;;;;;;;4.00;3.00;;;;;15.64;49.61;101256.63;5011113;28;9459;-75
2022/01/10 02:23:20;;;;;;;;;5.25;4.00;;;;;15.62;49.52;101271.53;5010645;28;10354;-74
2022/01/10 02:25:47;;;;;;;;;3.00;3.00;;;;;15.56;49.61;101288.16;5011118;28;9462;-73
2022/01/10 02:28:13;;;;;;;;;5.00;5.00;;;;;15.57;49.68;101292.56;5010603;28;9457;-73
2022/01/10 02:30:39;;;;;;;;;4.50;4.50;;;;;15.62;49.63;101292.59;5011281;28;9474;-73
2022/01/10 02:33:06;;;;;;;;;9.00;6.00;;;;;15.57;49.48;101292.56;5011392;28;8782;-73
2022/01/10 02:35:55;;;;;;;;;5.00;5.00;;;;;15.56;49.93;101301.31;5010867;28;9627;-73
2022/01/10 02:38:20;;;;;;;;;5.00;5.00;;;;;15.56;49.51;101300.44;5010164;28;9615;-73
2022/01/10 02:40:47;;;;;;;;;5.50;4.75;;;;;15.60;49.66;101307.47;5009622;28;10241;-73
2022/01/10 02:43:12;;;;;;;;;5.00;5.00;;;;;15.60;49.59;101316.25;5010867;28;8782;-72
2022/01/10 02:45:37;;;;;;;;;4.75;4.75;;;;;15.57;49.42;101310.09;5011141;28;9559;-72
2022/01/10 02:48:03;;;;;;;;;5.00;5.00;;;;;15.55;49.50;101309.22;5011173;28;8848;-73
2022/01/10 02:50:28;;;;;;;;;5.00;5.00;;;;;15.58;49.67;101323.28;5010796;28;8766;-73
2022/01/10 02:52:53;;;;;;;;;3.50;3.50;;;;;15.57;49.55;101320.63;5010822;28;8798;-73
2022/01/10 02:55:19;;;;;;;;;3.00;3.00;;;;;15.56;49.51;101326.78;5010998;28;8774;-73
2022/01/10 02:57:44;;;;;;;;;3.00;3.00;;;;;15.57;49.65;101339.03;5010516;28;8822;-73
2022/01/10 03:00:17;;;;;;;;;6.00;5.00;;;;;15.58;49.40;101323.28;5011874;28;8750;-73
2022/01/10 03:02:43;;;;;;;;;6.75;6.00;;;;;15.58;49.50;101332.91;5014357;28;8797;-73
2022/01/10 03:05:09;;;;;;;;;3.75;3.75;;;;;15.59;49.48;101339.94;5013918;28;9736;-72
2022/01/10 03:07:35;;;;;;;;;6.00;5.00;;;;;15.56;49.51;101335.53;5014842;28;9660;-73
2022/01/10 03:10:00;;;;;;;;;5.25;4.50;;;;;15.59;49.70;101343.47;5013454;28;9613;-73
2022/01/10 03:12:26;;;;;;;;;5.00;4.25;;;;;15.52;49.82;101349.56;5013559;28;8793;-73
2022/01/10 03:14:51;;;;;;;;;5.25;5.25;;;;;15.53;49.60;101347.78;5014519;28;8840;-73
2022/01/10 03:17:16;;;;;;;;;5.25;5.00;;;;;15.55;49.74;101362.72;5014165;28;8786;-73
2022/01/10 03:19:43;;;;;;;;;5.00;4.50;;;;;15.58;49.40;101359.22;5014043;28;8758;-72
2022/01/10 03:22:09;;;;;;;;;3.75;3.00;;;;;15.59;49.54;101366.28;5014559;28;8770;-72
2022/01/10 03:24:34;;;;;;;;;3.75;3.50;;;;;15.58;49.47;101375.03;5013712;28;9718;-73
2022/01/10 03:27:00;;;;;;;;;5.25;4.00;;;;;15.59;49.49;101374.16;5013894;28;9747;-73
2022/01/10 03:29:25;;;;;;;;;6.00;5.00;;;;;15.55;49.45;101391.69;5014490;28;8777;-73
2022/01/10 03:31:51;;;;;;;;;3.50;3.50;;;;;15.57;49.51;101394.31;5013594;28;8844;-73
2022/01/10 03:34:16;;;;;;;;;4.00;4.00;;;;;15.58;49.50;101403.97;5014189;28;8798;-73
2022/01/10 03:36:43;;;;;;;;;5.00;3.75;;;;;15.58;49.40;101398.72;5013963;28;8780;-72
2022/01/10 03:39:09;;;;;;;;;6.00;4.75;;;;;15.53;49.39;101403.03;5013492;28;8817;-72
2022/01/10 03:41:35;;;;;;;;;6.25;4.75;;;;;15.59;49.50;101409.28;5013514;28;10261;-73
2022/01/10 03:44:01;;;;;;;;;4.25;4.25;;;;;15.54;49.56;101410.97;5013961;28;8762;-73
2022/01/10 03:46:28;;;;;;;;;4.50;4.50;;;;;15.53;49.45;101416.19;5013201;28;9606;-72
2022/01/10 03:48:53;;;;;;;;;4.00;4.00;;;;;15.54;49.49;101415.34;5013617;28;8790;-72
2022/01/10 03:51:18;;;;;;;;;3.00;3.00;;;;;15.56;49.61;101432.03;5013079;28;9587;-72
2022/01/10 03:53:44;;;;;;;;;4.50;4.50;;;;;15.58;49.41;101432.94;5013189;28;8825;-72
2022/01/10 03:56:09;;;;;;;;;4.00;4.00;;;;;15.54;49.60;101434.66;5013676;28;9534;-72
2022/01/10 03:58:34;;;;;;;;;6.00;3.75;;;;;15.56;49.56;101427.63;5013725;28;8845;-72
2022/01/10 04:01:02;;;;;;;;;4.00;4.00;;;;;15.53;49.53;101430.25;5012673;28;8893;-72
2022/01/10 04:03:27;;;;;;;;;4.00;4.00;;;;;15.57;49.30;101432.03;5013843;28;8770;-72
2022/01/10 04:05:52;;;;;;;;;2.75;2.75;;;;;15.57;49.41;101431.16;5013278;28;9661;-72
2022/01/10 04:08:18;;;;;;;;;5.75;5.75;;;;;15.54;49.56;101434.66;5012941;28;8798;-73
2022/01/10 04:10:43;;;;;;;;;4.25;3.25;;;;;15.57;49.39;101442.56;5013068;28;8770;-72
2022/01/10 04:13:08;;;;;;;;;4.75;3.00;;;;;15.56;49.48;101439.94;5013473;28;8793;-72
2022/01/10 04:15:34;;;;;;;;;4.00;4.00;;;;;15.60;49.96;101449.59;5013043;28;8794;-73
2022/01/10 04:18:01;;;;;;;;;4.50;3.25;;;;;15.51;49.75;101445.16;5012998;28;8888;-73
2022/01/10 04:20:27;;;;;;;;;4.50;4.25;;;;;15.55;49.70;101456.59;5013480;28;9529;-72
2022/01/10 04:22:58;;;;;;;;;4.00;4.00;;;;;15.54;49.76;101457.44;5012418;28;9533;-72
2022/01/10 04:25:23;;;;;;;;;6.00;5.00;;;;;15.57;49.96;101458.34;5013398;28;8778;-72
2022/01/10 04:27:48;;;;;;;;;3.75;3.75;;;;;15.57;49.78;101471.53;5012343;28;9675;-73
2022/01/10 04:30:17;;;;;;;;;4.50;4.50;;;;;15.54;49.80;101468.84;5012922;28;8798;-73
2022/01/10 04:32:43;;;;;;;;;4.00;3.00;;;;;15.56;49.73;101474.16;5013106;28;8790;-73
2022/01/10 04:35:12;;;;;;;;;5.00;3.75;;;;;15.51;49.82;101481.09;5012371;28;9558;-73
2022/01/10 04:37:38;;;;;;;;;4.00;4.00;;;;;15.55;49.72;101485.53;5012596;28;9666;-73
2022/01/10 04:40:09;;;;;;;;;4.00;4.00;;;;;15.53;49.92;101487.25;5012904;28;9662;-73
2022/01/10 04:42:35;;;;;;;;;4.25;4.25;;;;;15.56;49.70;101500.47;5011010;28;9507;-73
2022/01/10 04:45:00;;;;;;;;;4.00;4.00;;;;;15.53;49.85;101510.94;5012633;28;9587;-73
2022/01/10 04:47:29;;;;;;;;;4.75;4.75;;;;;15.52;49.80;101514.47;5012944;28;8865;-73
2022/01/10 04:52:25;;;;;;;;;4.00;4.00;;;;;15.57;49.91;101532.06;5012721;28;9493;-73
2022/01/10 04:54:50;;;;;;;;;4.50;4.50;;;;;15.56;49.72;101524.16;5012199;28;9462;-73
2022/01/10 04:57:16;;;;;;;;;3.00;3.00;;;;;15.52;49.90;101533.75;5011489;28;8798;-73
2022/01/10 04:59:41;;;;;;;;;5.00;5.00;;;;;15.52;49.82;101546.03;5012442;28;8794;-73
2022/01/10 05:02:07;;;;;;;;;4.25;4.25;;;;;15.55;49.83;101541.69;5011506;28;8840;-73
2022/01/10 05:04:32;;;;;;;;;5.00;4.75;;;;;15.53;49.83;101548.66;5011555;28;8808;-73
2022/01/10 05:06:58;;;;;;;;;4.25;4.25;;;;;15.55;49.77;101552.22;5012354;28;9556;-73
2022/01/10 05:09:23;;;;;;;;;4.00;4.00;;;;;15.53;49.94;101553.94;5012576;28;8774;-72
2022/01/10 05:11:48;;;;;;;;;3.25;3.25;;;;;15.52;49.84;101553.94;5011303;28;8774;-73
2022/01/10 05:14:14;;;;;;;;;5.50;4.25;;;;;15.55;49.75;101553.97;5012473;28;8790;-72
2022/01/10 05:16:40;;;;;;;;;4.75;4.75;;;;;15.54;50.02;101560.97;5012365;28;9523;-73
2022/01/10 05:19:07;;;;;;;;;3.50;3.50;;;;;15.55;49.55;101562.75;5011671;28;8810;-73
2022/01/10 05:21:32;;;;;;;;;5.00;4.00;;;;;15.53;49.76;101572.34;5012119;28;9624;-73
2022/01/10 05:23:58;;;;;;;;;5.00;4.00;;;;;15.55;49.91;101575.91;5010072;28;9737;-73
2022/01/10 05:26:23;;;;;;;;;4.00;4.00;;;;;15.52;49.74;101580.25;5011759;28;8869;-73
2022/01/10 05:28:48;;;;;;;;;4.25;3.25;;;;;15.55;49.83;101586.44;5011884;28;8766;-73
2022/01/10 05:31:14;;;;;;;;;7.50;5.75;;;;;15.54;49.75;101586.41;5011675;28;9255;-73
2022/01/10 05:33:39;;;;;;;;;4.00;4.00;;;;;15.53;49.69;101592.53;5011332;28;8762;-73
2022/01/10 05:36:05;;;;;;;;;4.00;4.00;;;;;15.57;49.87;101595.22;5012397;28;8786;-73
2022/01/10 05:38:30;;;;;;;;;2.75;2.75;;;;;15.56;49.66;101589.97;5011566;28;8806;-73
2022/01/10 05:40:55;;;;;;;;;4.00;4.00;;;;;15.53;49.65;101597.78;5011446;28;9529;-72
2022/01/10 05:43:21;;;;;;;;;4.50;3.00;;;;;15.53;49.71;101609.19;5011812;28;9597;-72
2022/01/10 05:45:46;;;;;;;;;4.00;4.00;;;;;15.55;49.82;101606.59;5011037;28;8775;-72
2022/01/10 05:48:15;;;;;;;;;4.50;4.25;;;;;15.53;49.81;101610.94;5011437;28;8889;-72
2022/01/10 05:50:43;;;;;;;;;5.00;5.00;;;;;15.53;49.67;101610.94;5011741;28;8852;-72
2022/01/10 05:53:10;;;;;;;;;4.25;4.00;;;;;15.57;49.71;101615.38;5011246;28;9619;-72
2022/01/10 05:55:37;;;;;;;;;5.00;4.50;;;;;15.54;50.01;101616.25;5011617;28;9634;-72
2022/01/10 05:58:03;;;;;;;;;3.75;3.75;;;;;15.57;49.77;101628.53;5011248;28;9769;-72
2022/01/10 06:00:28;;;;;;;;;5.25;5.25;;;;;15.55;49.52;101631.19;5011017;28;9639;-72
2022/01/10 06:02:54;;;;;;;;;4.00;4.00;;;;;15.54;49.61;101628.50;5011123;28;9490;-73
2022/01/10 06:05:20;;;;;;;;;4.25;4.25;;;;;15.55;49.76;101636.44;5011377;28;8816;-72
2022/01/10 06:07:45;;;;;;;;;5.50;4.25;;;;;15.57;49.64;101646.97;5010581;28;8818;-72
2022/01/10 06:10:11;;;;;;;;;3.00;3.00;;;;;15.54;49.62;101645.19;5011715;28;9700;-72
2022/01/10 06:12:36;;;;;;;;;5.00;4.00;;;;;15.55;49.45;101653.97;5011574;28;8893;-72
2022/01/10 06:15:03;;;;;;;;;4.00;4.00;;;;;15.56;49.81;101664.50;5010772;28;8755;-72
2022/01/10 06:17:28;;;;;;;;;3.00;3.00;;;;;15.51;49.63;101660.06;5011191;28;8872;-72
2022/01/10 06:19:53;;;;;;;;;3.00;3.00;;;;;15.58;49.42;101665.44;5011241;28;9789;-73
2022/01/10 06:22:19;;;;;;;;;5.00;5.00;;;;;15.55;49.68;101680.28;5010870;28;8774;-72
2022/01/10 06:24:44;;;;;;;;;4.00;4.00;;;;;15.59;49.81;101685.63;5011183;28;9650;-73
2022/01/10 06:27:09;;;;;;;;;5.50;3.75;;;;;15.58;49.58;101690.88;5010897;28;8802;-74
2022/01/10 06:29:34;;;;;;;;;5.50;5.50;;;;;15.57;49.72;101697.88;5011246;28;8798;-74
2022/01/10 06:32:00;;;;;;;;;5.00;5.00;;;;;15.56;49.77;101693.47;5010998;28;8893;-73
2022/01/10 06:34:25;;;;;;;;;5.00;5.00;;;;;15.57;49.53;101697.88;5012300;28;8770;-73
2022/01/10 06:36:51;;;;;;;;;7.00;5.50;;;;;15.56;49.69;101706.63;5014814;28;8797;-73
2022/01/10 06:39:16;;;;;;;;;5.00;5.00;;;;;15.54;49.60;101708.34;5015308;28;8871;-73
2022/01/10 06:41:41;;;;;;;;;4.50;4.25;;;;;15.54;49.75;101721.50;5014628;28;8786;-73
2022/01/10 06:44:07;;;;;;;;;5.75;4.25;;;;;15.57;49.59;101718.03;5014865;28;8889;-73
2022/01/10 06:46:32;;;;;;;;;7.50;5.00;;;;;15.53;49.55;101726.75;5014909;28;8781;-72
2022/01/10 06:48:57;;;;;;;;;5.00;5.00;;;;;15.59;49.63;101729.50;5013427;28;8778;-72
2022/01/10 06:51:23;;;;;;;;;5.50;5.50;;;;;15.55;49.60;101732.94;5014360;28;8865;-73
2022/01/10 06:53:48;;;;;;;;;7.50;6.00;;;;;15.56;49.58;101735.56;5014934;28;8793;-72
2022/01/10 06:56:14;;;;;;;;;5.00;3.25;;;;;15.59;49.54;101734.75;5014317;28;8779;-72
2022/01/10 06:58:40;;;;;;;;;9.25;6.00;;;;;15.56;49.72;101738.19;5014152;28;8794;-72
2022/01/10 07:01:05;;;;;;;;;6.50;6.00;;;;;15.56;49.70;101746.09;5014801;28;9403;-72
2022/01/10 07:03:30;;;;;;;;;5.75;4.75;;;;;15.55;49.62;101748.72;5014151;28;8770;-72
2022/01/10 07:05:55;;;;;;;;;5.00;5.00;;;;;15.55;49.74;101752.25;5000270;28;8933;-72
2022/01/10 07:08:22;;;;;;;;;3.25;3.25;;;;;15.56;49.58;101768.94;4994974;28;8785;-73
2022/01/10 07:10:48;;;;;;;;;6.50;5.25;;;;;15.55;49.58;101773.31;4994561;28;8782;-73
2022/01/10 07:13:13;;;;;;;;;4.50;4.50;;;;;15.55;49.57;101791.72;4995199;28;9593;-72
2022/01/10 07:15:38;;;;;;;;;6.00;6.00;;;;;15.52;49.86;101789.06;4995009;28;8779;-73
2022/01/10 07:18:03;;;;;;;;;5.50;5.50;;;;;15.64;54.33;101791.84;4994102;28;9570;-75
2022/01/10 07:20:31;;;;;;;;;9.25;8.25;;;;;15.77;58.39;101808.75;4994736;28;8899;-75
2022/01/10 07:22:56;;;;;;;;;8.00;5.75;;;;;15.78;54.65;101819.28;4974841;28;8820;-75
2022/01/10 07:25:21;;;;;;;;;4.75;4.75;;;;;15.84;56.17;101816.75;4974620;28;9720;-75
2022/01/10 07:27:47;;;;;;;;;11.25;10.75;;;;;16.01;60.96;101824.91;4975180;28;8820;-75
2022/01/10 07:30:13;;;;;;;;;13.75;13.00;;;;;16.21;65.45;101826.09;4974993;28;9533;-74
2022/01/10 07:32:38;;;;;;;;;11.25;10.50;;;;;16.23;64.77;101828.75;4974338;28;8859;-75
2022/01/10 07:35:04;;;;;;;;;5.75;5.75;;;;;16.26;64.90;101845.50;4974820;28;8805;-74
2022/01/10 07:37:29;;;;;;;;;10.50;10.50;;;;;16.25;64.91;101848.09;4974350;28;8851;-74
2022/01/10 07:39:54;;;;;;;;;10.50;10.50;;;;;16.19;64.27;101845.41;4975441;28;8851;-74
2022/01/10 07:42:20;;;;;;;;;12.50;10.25;;;;;16.22;66.77;101855.97;4994583;28;8783;-74
2022/01/10 07:44:45;;;;;;;;;15.50;13.75;;;;;16.26;68.77;101866.59;4993412;28;8802;-73
2022/01/10 07:47:10;;;;;;;;;16.50;13.25;;;;;16.46;69.78;101876.53;4993489;28;9526;-74
2022/01/10 07:49:36;;;;;;;;;11.50;11.00;;;;;16.37;68.13;101878.16;4994265;28;8775;-73
2022/01/10 07:52:02;;;;;;;;;17.25;14.00;;;;;16.31;68.14;101892.97;4991066;28;8799;-75
2022/01/10 07:54:27;;;;;;;;;11.50;10.75;;;;;16.25;68.15;101892.91;4984625;28;8802;-71
2022/01/10 07:56:53;;;;;;;;;19.25;14.75;;;;;16.21;67.91;101896.34;4993043;28;8807;-75
2022/01/10 07:59:21;;;;;;;;;14.25;13.00;;;;;16.14;67.48;101902.38;4991331;28;8845;-72
2022/01/10 08:01:47;;;;;;;;;18.25;17.25;;;;;16.13;66.54;101904.13;4991896;28;10722;-72
2022/01/10 08:04:12;;;;;;;;;22.50;19.75;;;;;16.10;64.14;101911.09;4992688;28;10062;-73
2022/01/10 08:06:44;;;;;;;;;18.25;18.00;;;;;16.03;62.64;101917.13;5011909;28;10115;-73
2022/01/10 08:09:09;;;;;;;;;18.25;16.00;;;;;15.93;60.60;101913.47;5013206;28;8868;-74
2022/01/10 08:11:35;;;;;;;;;17.50;17.50;;;;;15.89;60.21;101919.56;5013537;28;11403;-74
2022/01/10 08:14:01;;;;;;;;;20.25;18.25;;;;;15.84;59.16;101919.47;5012346;28;8770;-73
2022/01/10 08:16:26;;;;;;;;;18.00;17.50;;;;;15.81;58.21;101927.31;5013418;28;8782;-73
2022/01/10 08:18:51;;;;;;;;;18.50;17.75;;;;;15.79;58.76;101934.28;5012541;28;10186;-74
2022/01/10 08:21:17;;;;;;;;;18.50;17.50;;;;;15.81;57.90;101935.22;5011983;28;8789;-73
2022/01/10 08:23:42;;;;;;;;;18.00;18.00;;;;;15.94;57.45;101939.81;5012748;28;8782;-73
2022/01/10 08:26:08;;;;;;;;;19.75;19.75;;;;;15.95;58.34;101954.78;5013187;28;8778;-73
2022/01/10 08:28:35;;;;;;;;;20.50;19.50;;;;;15.97;58.27;101964.47;5011998;28;8834;-73
2022/01/10 08:31:00;;;;;;;;;20.25;18.00;;;;;15.97;57.33;101951.28;5012626;28;10231;-73
2022/01/10 08:33:26;;;;;;;;;19.00;18.25;;;;;15.94;57.49;101958.25;5013009;28;10135;-73
2022/01/10 08:35:53;;;;;;;;;17.50;16.50;;;;;15.93;57.79;101963.53;5012348;28;9608;-73
2022/01/10 08:38:22;;;;;;;;;17.00;16.00;;;;;15.98;57.49;101968.84;5013750;28;8805;-73
2022/01/10 08:40:47;;;;;;;;;18.75;17.00;;;;;15.97;57.14;101970.63;5012901;28;9959;-73
2022/01/10 08:43:13;;;;;;;;;18.25;17.25;;;;;15.96;57.01;101979.38;5013269;28;9986;-73
2022/01/10 08:45:39;;;;;;;;;21.75;20.00;;;;;15.93;57.40;101979.31;5013873;28;8780;-73
2022/01/10 08:48:07;;;;;;;;;23.00;23.00;;;;;15.95;56.98;101986.38;5013006;28;9534;-73
2022/01/10 08:50:33;;;;;;;;;16.50;15.50;;;;;15.91;56.42;101981.91;5012267;28;10047;-73
2022/01/10 08:53:00;;;;;;;;;18.00;16.50;;;;;15.97;56.06;101980.25;5013139;28;10126;-73
2022/01/10 08:55:26;;;;;;;;;19.00;18.00;;;;;15.96;56.25;101979.38;5013535;28;10254;-73
2022/01/10 08:57:54;;;;;;;;;20.00;19.00;;;;;15.95;56.19;101977.59;4973479;28;10170;-73
2022/01/10 09:00:19;;;;;;;;;18.25;17.75;;;;;15.94;55.59;101987.22;4974498;28;8766;-75
2022/01/10 09:02:45;;;;;;;;;20.50;19.50;;;;;16.16;55.12;101985.84;4974356;28;10280;-73
2022/01/10 09:05:10;;;;;;;;;21.00;20.25;;;;;16.13;55.18;101987.53;4974058;28;8804;-72
2022/01/10 09:07:36;;;;;;;;;16.50;13.25;;;;;16.01;55.96;102004.03;4974284;28;8800;-73
2022/01/10 09:10:01;;;;;;;;;17.75;15.25;;;;;15.90;56.49;101997.69;4973470;28;8879;-72
2022/01/10 09:12:26;;;;;;;;;15.25;14.00;;;;;15.89;56.19;102010.00;4973900;28;8892;-72
2022/01/10 09:14:52;;;;;;;;;13.50;13.50;;;;;15.90;56.36;102010.84;4972909;28;8831;-72
2022/01/10 09:17:17;;;;;;;;;16.50;16.50;;;;;15.86;56.10;102014.28;4981616;28;8823;-73
2022/01/10 09:19:43;;;;;;;;;15.00;13.75;;;;;15.88;56.13;102012.56;4991135;28;9563;-73
2022/01/10 09:22:11;;;;;;;;;13.75;13.75;;;;;15.87;56.21;102016.06;4991169;28;8837;-73
2022/01/10 09:24:36;;;;;;;;;16.50;16.00;;;;;15.85;56.00;102021.31;4990100;28;8799;-73
2022/01/10 09:27:02;;;;;;;;;13.00;12.50;;;;;15.86;56.00;102025.69;4991099;28;9990;-73
2022/01/10 09:29:27;;;;;;;;;14.00;12.75;;;;;15.89;55.90;102027.53;4991264;28;8783;-76
2022/01/10 09:31:55;;;;;;;;;15.75;14.50;;;;;15.94;55.59;102031.13;4990910;28;8815;-73
2022/01/10 09:34:21;;;;;;;;;14.50;13.50;;;;;15.96;55.27;102037.31;4988758;28;8810;-73
2022/01/10 09:36:46;;;;;;;;;16.50;16.50;;;;;16.02;55.31;102044.44;4990725;28;9994;-73
2022/01/10 09:39:13;;;;;;;;;16.75;14.00;;;;;16.03;55.39;102052.38;4989929;28;8843;-73
2022/01/10 09:41:39;;;;;;;;;15.25;13.25;;;;;16.07;55.08;102056.84;4991316;28;8898;-73
2022/01/10 09:44:10;;;;;;;;;12.25;12.25;;;;;16.14;54.84;102064.00;4989194;28;9822;-72
2022/01/10 09:46:35;;;;;;;;;17.00;15.00;;;;;16.17;54.70;102069.31;4990776;28;8826;-72
2022/01/10 09:49:07;;;;;;;;;13.00;12.00;;;;;16.23;54.74;102061.50;4990575;28;9807;-72
2022/01/10 09:51:33;;;;;;;;;13.00;13.00;;;;;16.24;54.38;102071.19;4990538;28;8835;-73
2022/01/10 09:54:00;;;;;;;;;10.00;10.00;;;;;16.28;54.48;102077.41;4989427;28;9922;-73
2022/01/10 09:56:29;;;;;;;;;13.00;12.00;;;;;16.24;54.28;102087.00;4990795;28;8840;-73
2022/01/10 09:58:54;;;;;;;;;11.75;11.75;;;;;16.25;54.48;102080.88;4990179;28;9759;-73
2022/01/10 10:01:21;;;;;;;;;13.00;12.50;;;;;16.29;54.34;102092.38;4990817;28;9842;-73
2022/01/10 10:03:48;;;;;;;;;15.00;12.00;;;;;16.31;54.11;102099.44;4988695;28;9609;-72
2022/01/10 10:06:15;;;;;;;;;14.50;12.00;;;;;16.36;54.14;102099.53;4990026;28;10105;-74
2022/01/10 10:08:41;;;;;;;;;13.50;12.00;;;;;16.36;54.22;102102.16;4990410;28;9815;-75
2022/01/10 10:11:08;;;;;;;;;13.75;13.75;;;;;16.31;54.16;102107.34;4990225;28;9578;-73
2022/01/10 10:13:43;;;;;;;;;13.25;12.50;;;;;16.39;54.23;102118.00;4988916;28;9569;-73
2022/01/10 10:16:13;;;;;;;;;15.25;13.00;;;;;16.40;53.82;102120.69;4991000;28;9479;-73
2022/01/10 10:18:43;;;;;;;;;13.25;12.25;;;;;16.34;54.24;102130.25;4990922;28;9826;-73
2022/01/10 10:21:11;;;;;;;;;11.75;11.75;;;;;16.33;54.10;102141.63;4990006;28;9819;-74
2022/01/10 10:23:40;;;;;;;;;12.00;12.00;;;;;16.36;54.20;102142.59;4989407;28;9858;-74
2022/01/10 10:26:06;;;;;;;;;12.75;12.25;;;;;16.45;54.14;102149.78;4990816;28;9781;-74
2022/01/10 10:28:45;;;;;;;;;11.75;11.00;;;;;16.37;54.14;102156.66;4989828;28;9807;-74
2022/01/10 10:31:11;;;;;;;;;15.50;15.50;;;;;16.39;53.82;102144.38;4989936;28;10495;-73
2022/01/10 10:33:46;;;;;;;;;14.00;13.25;;;;;16.44;54.02;102155.91;4988869;28;10056;-73
2022/01/10 10:36:11;;;;;;;;;15.00;14.75;;;;;16.41;53.82;102150.59;4990413;28;8798;-73
2022/01/10 10:38:37;;;;;;;;;14.00;12.25;;;;;16.46;53.46;102158.59;4990474;28;9933;-73
2022/01/10 10:41:04;;;;;;;;;12.75;12.75;;;;;16.38;53.67;102161.94;4989781;28;8811;-73
2022/01/10 10:43:31;;;;;;;;;13.25;12.25;;;;;16.40;53.55;102172.53;4989575;28;8811;-74
2022/01/10 10:46:00;;;;;;;;;12.75;12.75;;;;;16.37;53.51;102173.34;4989959;28;9915;-73
2022/01/10 10:48:25;;;;;;;;;14.50;13.00;;;;;16.37;53.46;102183.91;4989478;28;9859;-73
2022/01/10 10:50:52;;;;;;;;;12.00;12.00;;;;;16.35;53.56;102185.59;4990401;28;9854;-73
2022/01/10 10:53:18;;;;;;;;;14.75;14.75;;;;;16.33;53.42;102186.44;4990828;28;8803;-73
2022/01/10 10:55:44;;;;;;;;;14.00;13.75;;;;;16.34;53.33;102186.47;4987906;28;9997;-73
2022/01/10 10:58:11;;;;;;;;;15.00;13.00;;;;;16.31;53.45;102190.78;4990413;28;8819;-73
2022/01/10 11:00:37;;;;;;;;;12.50;12.50;;;;;16.27;53.71;102188.97;4990065;28;9849;-73
2022/01/10 11:03:04;;;;;;;;;14.25;14.25;;;;;16.30;53.73;102189.91;4988953;28;9910;-73
2022/01/10 11:05:29;;;;;;;;;15.00;13.75;;;;;16.33;53.48;102192.59;4989188;28;11190;-73
2022/01/10 11:07:56;;;;;;;;;13.50;13.50;;;;;16.33;53.18;102200.50;4990279;28;9966;-73
2022/01/10 11:10:24;;;;;;;;;15.50;13.50;;;;;16.37;53.14;102210.25;4989305;28;8807;-73
2022/01/10 11:13:11;;;;;;;;;14.50;14.50;;;;;16.34;53.49;102215.47;4989912;28;9922;-72
2022/01/10 11:15:40;;;;;;;;;18.25;15.50;;;;;16.29;53.34;102214.50;4988351;28;10031;-73
2022/01/10 11:18:08;;;;;;;;;13.50;13.50;;;;;16.25;53.51;102223.19;4990200;28;9882;-73
2022/01/10 11:20:42;;;;;;;;;14.00;12.00;;;;;16.29;53.46;102216.22;4989741;28;9958;-72
2022/01/10 11:23:08;;;;;;;;;13.00;13.00;;;;;16.36;53.15;102232.19;4992160;28;10115;-72
2022/01/10 11:25:36;;;;;;;;;14.75;14.50;;;;;16.38;53.56;102230.47;4993014;28;9910;-73
2022/01/10 11:28:23;;;;;;;;;15.50;11.25;;;;;16.32;53.69;102219.81;4989328;28;9997;-73
2022/01/10 11:30:49;;;;;;;;;13.00;12.00;;;;;16.25;53.84;102231.09;4993093;28;9906;-72
2022/01/10 11:33:19;;;;;;;;;12.50;12.50;;;;;16.27;53.69;102241.69;4993250;28;9835;-72
2022/01/10 11:35:59;;;;;;;;;17.75;14.00;;;;;16.28;53.67;102246.06;4992790;28;11125;-73